createdAt,value
2023-04-30T00:00:56.734Z,100.00
2023-04-30T00:03:59.120Z,100.00
2023-04-30T00:07:01.359Z,100.00
2023-04-30T00:10:05.550Z,100.00
2023-04-30T00:13:08.558Z,100.00
2023-04-30T00:16:11.370Z,100.00
2023-04-30T00:19:13.467Z,100.00
2023-04-30T00:22:16.150Z,100.00
2023-04-30T00:25:18.126Z,100.00
2023-04-30T00:28:20.123Z,100.00
2023-04-30T00:31:22.370Z,100.00
2023-04-30T00:34:24.397Z,100.00
2023-04-30T00:37:26.366Z,100.00
2023-04-30T00:40:28.549Z,100.00
2023-04-30T00:43:30.647Z,100.00
2023-04-30T00:46:32.611Z,100.00
2023-04-30T00:49:34.638Z,100.00
2023-04-30T00:52:36.614Z,100.00
2023-04-30T00:55:40.676Z,100.00
2023-04-30T00:58:43.246Z,100.00
2023-04-30T01:01:45.463Z,100.00
2023-04-30T01:04:47.616Z,100.00
2023-04-30T01:07:50.876Z,100.00
2023-04-30T01:11:19.078Z,100.00
2023-04-30T01:14:29.062Z,100.00
2023-04-30T01:17:58.373Z,100.00
2023-04-30T01:21:05.801Z,100.00
2023-04-30T01:24:35.176Z,100.00
2023-04-30T01:28:03.914Z,100.00
2023-04-30T01:31:14.362Z,100.00
2023-04-30T01:34:16.488Z,100.00
2023-04-30T01:37:30.457Z,100.00
2023-04-30T01:40:58.006Z,100.00
2023-04-30T01:44:03.410Z,100.00
2023-04-30T01:47:07.669Z,99.75
2023-04-30T01:50:44.191Z,99.43
2023-04-30T01:53:47.235Z,99.20
2023-04-30T01:57:02.761Z,98.99
2023-04-30T02:00:05.933Z,98.93
2023-04-30T02:03:08.400Z,98.88
2023-04-30T02:06:10.440Z,98.80
2023-04-30T02:09:12.617Z,98.86
2023-04-30T02:12:15.000Z,98.83
2023-04-30T02:15:17.102Z,98.82
2023-04-30T02:18:19.139Z,98.81
2023-04-30T02:21:21.329Z,98.90
2023-04-30T02:24:23.346Z,98.78
2023-04-30T02:27:26.346Z,98.58
2023-04-30T02:30:28.937Z,98.57
2023-04-30T02:33:31.016Z,98.70
2023-04-30T02:36:36.352Z,98.81
2023-04-30T02:39:38.609Z,99.01
2023-04-30T02:42:40.728Z,99.21
2023-04-30T02:45:42.995Z,98.88
2023-04-30T02:48:45.322Z,98.73
2023-04-30T02:51:47.451Z,98.93
2023-04-30T02:54:49.638Z,98.67
2023-04-30T02:57:51.625Z,98.67
2023-04-30T03:00:53.750Z,98.51
2023-04-30T03:03:55.862Z,98.34
2023-04-30T03:06:57.750Z,98.48
2023-04-30T03:09:59.813Z,98.07
2023-04-30T03:13:01.813Z,97.90
2023-04-30T03:16:07.051Z,97.47
2023-04-30T03:19:09.196Z,97.13
2023-04-30T03:22:11.408Z,97.01
2023-04-30T03:25:14.408Z,96.70
2023-04-30T03:28:16.334Z,96.56
2023-04-30T03:31:18.391Z,96.50
2023-04-30T03:34:20.478Z,96.40
2023-04-30T03:37:22.461Z,96.61
2023-04-30T03:40:24.439Z,96.74
2023-04-30T03:43:26.452Z,96.85
2023-04-30T03:46:28.412Z,96.87
2023-04-30T03:49:31.524Z,96.82
2023-04-30T03:52:33.862Z,96.64
2023-04-30T03:55:36.085Z,96.17
2023-04-30T03:58:38.290Z,95.84
2023-04-30T04:01:40.316Z,95.69
2023-04-30T04:04:42.734Z,95.46
2023-04-30T04:07:44.731Z,94.83
2023-04-30T04:10:46.878Z,94.49
2023-04-30T04:13:48.892Z,94.18
2023-04-30T04:16:50.804Z,93.47
2023-04-30T04:19:53.008Z,92.89
2023-04-30T04:22:55.622Z,92.70
2023-04-30T04:25:57.722Z,92.48
2023-04-30T04:28:59.755Z,91.90
2023-04-30T04:32:03.005Z,91.68
2023-04-30T04:35:05.487Z,91.24
2023-04-30T04:38:07.640Z,90.87
2023-04-30T04:41:09.564Z,90.89
2023-04-30T04:44:11.717Z,89.89
2023-04-30T04:47:13.653Z,89.96
2023-04-30T04:50:16.006Z,89.92
2023-04-30T04:53:17.891Z,89.69
2023-04-30T04:56:19.894Z,89.06
2023-04-30T04:59:22.216Z,88.66
2023-04-30T05:02:24.798Z,87.87
2023-04-30T05:05:26.885Z,87.36
2023-04-30T05:08:28.955Z,87.74
2023-04-30T05:11:30.862Z,87.05
2023-04-30T05:14:32.978Z,87.02
2023-04-30T05:17:34.965Z,86.87
2023-04-30T05:20:37.036Z,86.72
2023-04-30T05:23:39.037Z,86.57
2023-04-30T05:26:41.008Z,85.59
2023-04-30T05:29:42.961Z,85.58
2023-04-30T05:32:50.843Z,85.26
2023-04-30T05:35:52.893Z,85.09
2023-04-30T05:38:55.361Z,84.77
2023-04-30T05:41:57.470Z,84.46
2023-04-30T05:44:59.425Z,83.98
2023-04-30T05:48:02.213Z,82.95
2023-04-30T05:51:05.744Z,81.99
2023-04-30T05:54:07.768Z,82.32
2023-04-30T05:57:09.706Z,82.06
2023-04-30T06:00:12.628Z,82.11
2023-04-30T06:03:14.843Z,82.22
2023-04-30T06:06:17.058Z,82.28
2023-04-30T06:09:19.117Z,81.91
2023-04-30T06:12:21.517Z,81.52
2023-04-30T06:15:23.840Z,81.31
2023-04-30T06:18:25.817Z,80.43
2023-04-30T06:21:28.190Z,78.02
2023-04-30T06:24:30.846Z,77.30
2023-04-30T06:27:32.742Z,76.47
2023-04-30T06:30:35.060Z,73.62
2023-04-30T06:33:36.945Z,72.68
2023-04-30T06:36:38.899Z,73.35
2023-04-30T06:39:41.321Z,73.43
2023-04-30T06:42:44.148Z,72.45
2023-04-30T06:45:47.062Z,72.06
2023-04-30T06:48:49.035Z,72.22
2023-04-30T06:51:51.117Z,72.75
2023-04-30T06:54:53.233Z,72.68
2023-04-30T06:57:55.206Z,73.14
2023-04-30T07:00:58.024Z,72.91
2023-04-30T07:04:01.615Z,72.66
2023-04-30T07:07:03.675Z,71.74
2023-04-30T07:10:06.534Z,70.96
2023-04-30T07:13:08.758Z,70.66
2023-04-30T07:16:11.224Z,68.11
2023-04-30T07:19:13.309Z,66.79
2023-04-30T07:22:15.428Z,63.98
2023-04-30T07:25:17.933Z,62.78
2023-04-30T07:28:20.506Z,64.28
2023-04-30T07:31:22.676Z,65.72
2023-04-30T07:34:25.349Z,66.59
2023-04-30T07:37:27.300Z,67.93
2023-04-30T07:43:37.343Z,68.56
2023-04-30T07:46:40.176Z,68.15
2023-04-30T07:49:42.374Z,67.59
2023-04-30T07:52:44.524Z,67.67
2023-04-30T07:55:46.663Z,67.10
2023-04-30T07:58:48.780Z,67.54
2023-04-30T08:01:54.085Z,67.40
2023-04-30T08:04:56.996Z,67.47
2023-04-30T08:07:59.052Z,67.37
2023-04-30T08:11:01.134Z,66.80
2023-04-30T08:14:03.455Z,67.36
2023-04-30T08:17:05.503Z,67.36
2023-04-30T08:20:08.212Z,66.03
2023-04-30T08:23:10.839Z,65.53
2023-04-30T08:26:13.035Z,64.46
2023-04-30T08:29:15.064Z,62.70
2023-04-30T08:32:19.362Z,61.22
2023-04-30T08:35:21.622Z,58.45
2023-04-30T08:38:23.531Z,56.97
2023-04-30T08:41:34.518Z,56.46
2023-04-30T08:44:39.862Z,55.79
2023-04-30T08:47:42.206Z,55.44
2023-04-30T08:50:44.309Z,57.71
2023-04-30T08:53:48.192Z,58.99
2023-04-30T08:56:50.558Z,58.20
2023-04-30T08:59:54.751Z,59.06
2023-04-30T09:02:57.126Z,59.37
2023-04-30T09:05:59.459Z,57.95
2023-04-30T09:09:11.535Z,54.47
2023-04-30T09:12:19.538Z,51.90
2023-04-30T09:15:22.377Z,51.60
2023-04-30T09:18:24.423Z,51.33
2023-04-30T09:21:37.578Z,50.51
2023-04-30T09:24:49.845Z,50.80
2023-04-30T09:28:10.529Z,51.76
2023-04-30T09:31:20.979Z,50.99
2023-04-30T09:34:34.667Z,50.48
2023-04-30T09:37:38.130Z,48.24
2023-04-30T09:40:42.631Z,45.73
2023-04-30T09:43:46.049Z,45.48
2023-04-30T09:46:51.120Z,45.21
2023-04-30T09:49:53.570Z,42.62
2023-04-30T09:53:06.782Z,42.20
2023-04-30T09:56:11.769Z,41.94
2023-04-30T09:59:14.949Z,41.39
2023-04-30T10:02:18.367Z,39.92
2023-04-30T10:05:20.818Z,46.81
2023-04-30T10:08:34.188Z,43.10
2023-04-30T10:11:38.851Z,42.43
2023-04-30T10:14:47.954Z,42.81
2023-04-30T10:17:54.801Z,40.81
2023-04-30T10:20:59.364Z,38.81
2023-04-30T10:24:01.781Z,36.06
2023-04-30T10:27:03.900Z,35.59
2023-04-30T10:30:11.587Z,35.24
2023-04-30T10:33:31.883Z,34.78
2023-04-30T10:36:44.902Z,33.95
2023-04-30T10:39:47.474Z,33.05
2023-04-30T10:42:50.125Z,33.67
2023-04-30T10:45:52.351Z,33.94
2023-04-30T10:48:55.728Z,34.55
2023-04-30T10:52:00.646Z,33.03
2023-04-30T10:55:07.540Z,31.73
2023-04-30T10:58:29.935Z,31.50
2023-04-30T11:01:32.719Z,31.90
2023-04-30T11:05:15.139Z,32.85
2023-04-30T11:08:17.255Z,35.22
2023-04-30T11:11:22.947Z,35.44
2023-04-30T11:14:25.109Z,34.21
2023-04-30T11:17:28.380Z,33.62
2023-04-30T11:20:30.613Z,34.46
2023-04-30T11:27:05.990Z,34.20
2023-04-30T11:30:16.533Z,32.91
2023-04-30T11:33:19.222Z,32.80
2023-04-30T11:36:22.354Z,32.00
2023-04-30T11:39:26.816Z,32.33
2023-04-30T11:42:34.883Z,32.14
2023-04-30T11:45:39.225Z,33.56
2023-04-30T11:48:42.526Z,34.11
2023-04-30T11:51:49.043Z,34.09
2023-04-30T11:54:51.023Z,33.88
2023-04-30T11:57:56.009Z,35.01
2023-04-30T12:01:00.154Z,33.54
2023-04-30T12:04:04.315Z,32.08
2023-04-30T12:07:09.005Z,32.46
2023-04-30T12:10:11.251Z,31.81
2023-04-30T12:13:16.879Z,34.75
2023-04-30T12:16:20.077Z,35.16
2023-04-30T12:19:25.313Z,34.13
2023-04-30T12:22:28.583Z,33.25
2023-04-30T12:25:30.969Z,34.32
2023-04-30T12:28:35.029Z,35.09
2023-04-30T12:31:39.880Z,35.63
2023-04-30T12:34:42.524Z,33.71
2023-04-30T12:37:50.264Z,33.97
2023-04-30T12:40:52.415Z,31.82
2023-04-30T12:44:17.217Z,30.99
2023-04-30T12:47:19.284Z,31.59
2023-04-30T12:50:22.823Z,33.47
2023-04-30T12:53:24.924Z,31.22
2023-04-30T12:56:27.052Z,32.56
2023-04-30T12:59:30.640Z,31.69
2023-04-30T13:02:32.767Z,34.06
2023-04-30T13:05:35.289Z,36.65
2023-04-30T13:08:49.726Z,36.21
2023-04-30T13:11:58.819Z,34.75
2023-04-30T13:15:00.891Z,32.81
2023-04-30T13:18:03.869Z,32.65
2023-04-30T13:21:06.420Z,32.51
2023-04-30T13:24:08.723Z,34.07
2023-04-30T13:27:11.726Z,32.42
2023-04-30T13:30:14.725Z,31.62
2023-04-30T13:33:16.693Z,31.16
2023-04-30T13:36:19.189Z,32.33
2023-04-30T13:39:22.029Z,32.05
2023-04-30T13:42:25.709Z,32.12
2023-04-30T13:45:27.706Z,31.86
2023-04-30T13:48:29.744Z,31.97
2023-04-30T13:51:32.461Z,31.59
2023-04-30T13:54:34.480Z,31.83
2023-04-30T13:57:36.772Z,32.24
2023-04-30T14:00:38.879Z,32.45
2023-04-30T14:03:41.332Z,32.67
2023-04-30T14:06:43.675Z,32.68
2023-04-30T14:09:45.946Z,33.14
2023-04-30T14:12:48.943Z,32.89
2023-04-30T14:15:51.888Z,34.10
2023-04-30T14:18:53.998Z,34.14
2023-04-30T14:21:56.436Z,33.82
2023-04-30T14:24:59.712Z,34.67
2023-04-30T14:28:01.663Z,35.55
2023-04-30T14:31:03.995Z,36.55
2023-04-30T14:34:06.155Z,35.79
2023-04-30T14:37:08.155Z,34.96
2023-04-30T14:40:10.634Z,35.13
2023-04-30T14:43:12.807Z,34.49
2023-04-30T14:46:14.809Z,33.43
2023-04-30T14:49:17.038Z,33.63
2023-04-30T14:52:19.970Z,34.69
2023-04-30T14:55:22.629Z,34.20
2023-04-30T14:58:25.494Z,35.06
2023-04-30T15:01:28.679Z,35.28
2023-04-30T15:04:31.157Z,34.27
2023-04-30T15:07:33.195Z,34.91
2023-04-30T15:10:35.493Z,34.95
2023-04-30T15:13:37.656Z,34.94
2023-04-30T15:16:40.159Z,34.81
2023-04-30T15:19:42.080Z,34.88
2023-04-30T15:22:44.709Z,34.55
2023-04-30T15:25:47.129Z,35.07
2023-04-30T15:28:49.376Z,34.68
2023-04-30T15:31:54.498Z,34.50
2023-04-30T15:34:56.807Z,34.13
2023-04-30T15:37:58.685Z,33.90
2023-04-30T15:41:01.003Z,34.44
2023-04-30T15:44:02.957Z,34.25
2023-04-30T15:47:05.257Z,34.56
2023-04-30T15:50:08.141Z,35.42
2023-04-30T15:53:10.235Z,36.80
2023-04-30T15:56:12.143Z,37.40
2023-04-30T15:59:17.717Z,37.54
2023-04-30T16:02:22.039Z,37.77
2023-04-30T16:05:24.154Z,39.19
2023-04-30T16:08:26.188Z,39.79
2023-04-30T16:11:28.125Z,39.65
2023-04-30T16:14:31.225Z,41.01
2023-04-30T16:17:33.518Z,39.90
2023-04-30T16:20:37.248Z,39.26
2023-04-30T16:23:39.442Z,39.24
2023-04-30T16:26:41.453Z,39.75
2023-04-30T16:29:43.370Z,40.98
2023-04-30T16:32:45.433Z,41.73
2023-04-30T16:35:48.280Z,42.74
2023-04-30T16:38:50.360Z,42.87
2023-04-30T16:41:52.255Z,42.50
2023-04-30T16:44:54.952Z,42.90
2023-04-30T16:47:57.075Z,43.14
2023-04-30T16:50:59.436Z,43.42
2023-04-30T16:54:01.765Z,43.48
2023-04-30T16:57:04.724Z,43.67
2023-04-30T17:00:08.825Z,44.93
2023-04-30T17:03:11.265Z,45.09
2023-04-30T17:06:14.362Z,45.51
2023-04-30T17:09:19.941Z,46.32
2023-04-30T17:12:22.001Z,46.65
2023-04-30T17:15:24.049Z,46.92
2023-04-30T17:18:27.543Z,46.56
2023-04-30T17:21:30.268Z,46.42
2023-04-30T17:24:32.537Z,46.28
2023-04-30T17:27:34.594Z,46.68
2023-04-30T17:30:37.302Z,46.61
2023-04-30T17:33:41.318Z,47.30
2023-04-30T17:36:44.737Z,47.12
2023-04-30T17:39:47.046Z,47.38
2023-04-30T17:42:51.627Z,48.03
2023-04-30T17:45:54.160Z,48.50
2023-04-30T17:49:00.766Z,48.72
2023-04-30T17:52:04.278Z,49.25
2023-04-30T17:55:10.169Z,50.21
2023-04-30T17:58:12.391Z,49.64
2023-04-30T18:01:15.029Z,50.54
2023-04-30T18:04:19.869Z,51.58
2023-04-30T18:07:22.112Z,51.59
2023-04-30T18:10:24.257Z,52.74
2023-04-30T18:13:29.740Z,52.74
2023-04-30T18:16:33.877Z,54.03
2023-04-30T18:19:43.253Z,53.68
2023-04-30T18:22:45.458Z,55.19
2023-04-30T18:25:48.520Z,55.88
2023-04-30T18:28:52.048Z,56.38
2023-04-30T18:31:54.650Z,56.81
2023-04-30T18:34:56.944Z,57.33
2023-04-30T18:37:59.338Z,57.57
2023-04-30T18:41:02.865Z,57.50
2023-04-30T18:44:05.083Z,56.42
2023-04-30T18:47:07.574Z,56.73
2023-04-30T18:50:13.611Z,57.02
2023-04-30T18:53:18.261Z,57.67
2023-04-30T18:56:22.177Z,58.21
2023-04-30T18:59:26.617Z,58.59
2023-04-30T19:02:29.806Z,57.83
2023-04-30T19:05:36.426Z,58.81
2023-04-30T19:08:39.363Z,59.09
2023-04-30T19:11:42.257Z,59.07
2023-04-30T19:14:44.876Z,60.70
2023-04-30T19:17:47.262Z,61.36
2023-04-30T19:21:01.437Z,61.82
2023-04-30T19:24:04.347Z,62.24
2023-04-30T19:27:08.025Z,63.37
2023-04-30T19:30:13.391Z,63.70
2023-04-30T19:33:15.797Z,64.42
2023-04-30T19:36:18.710Z,64.70
2023-04-30T19:39:21.923Z,65.12
2023-04-30T19:42:24.678Z,63.81
2023-04-30T19:45:28.183Z,65.08
2023-04-30T19:48:32.711Z,65.05
2023-04-30T19:51:35.657Z,64.59
2023-04-30T19:54:38.906Z,64.89
2023-04-30T19:57:41.764Z,65.04
2023-04-30T20:00:46.498Z,65.23
2023-04-30T20:03:49.714Z,65.22
2023-04-30T20:06:56.963Z,64.89
2023-04-30T20:09:59.882Z,64.83
2023-04-30T20:13:03.273Z,64.76
2023-04-30T20:16:06.211Z,65.28
2023-04-30T20:19:09.942Z,65.27
2023-04-30T20:22:13.868Z,65.87
2023-04-30T20:25:16.597Z,65.74
2023-04-30T20:28:19.844Z,66.03
2023-04-30T20:31:22.832Z,66.30
2023-04-30T20:34:27.430Z,66.14
2023-04-30T20:37:30.588Z,66.39
2023-04-30T20:40:33.794Z,66.37
2023-04-30T20:43:36.523Z,67.38
2023-04-30T20:46:39.321Z,67.62
2023-04-30T20:49:43.592Z,68.09
2023-04-30T20:52:45.952Z,68.34
2023-04-30T20:55:47.948Z,67.91
2023-04-30T20:58:49.974Z,68.22
2023-04-30T21:01:51.984Z,68.86
2023-04-30T21:04:54.014Z,69.29
2023-04-30T21:08:01.156Z,69.61
2023-04-30T21:11:04.408Z,69.90
2023-04-30T21:14:06.512Z,70.79
2023-04-30T21:17:08.642Z,70.82
2023-04-30T21:20:11.514Z,71.22
2023-04-30T21:23:14.713Z,71.25
2023-04-30T21:26:16.664Z,71.47
2023-04-30T21:29:18.577Z,72.18
2023-04-30T21:32:20.697Z,71.95
2023-04-30T21:35:22.676Z,72.20
2023-04-30T21:38:24.585Z,72.97
2023-04-30T21:41:28.079Z,73.40
2023-04-30T21:44:32.821Z,73.56
2023-04-30T21:47:34.804Z,73.73
2023-04-30T21:50:38.495Z,72.87
2023-04-30T21:53:42.487Z,74.17
2023-04-30T21:56:44.533Z,74.33
2023-04-30T21:59:46.541Z,74.94
2023-04-30T22:02:49.401Z,75.00
2023-04-30T22:05:51.937Z,74.12
2023-04-30T22:08:53.928Z,74.38
2023-04-30T22:11:56.166Z,74.87
2023-04-30T22:14:58.619Z,76.04
2023-04-30T22:18:00.720Z,76.30
2023-04-30T22:21:02.853Z,76.79
2023-04-30T22:24:05.530Z,77.02
2023-04-30T22:27:08.607Z,77.23
2023-04-30T22:30:12.004Z,77.70
2023-04-30T22:33:14.331Z,77.55
2023-04-30T22:36:16.247Z,78.01
2023-04-30T22:39:18.675Z,78.16
2023-04-30T22:42:20.941Z,78.25
2023-04-30T22:45:23.078Z,78.45
2023-04-30T22:48:26.936Z,78.65
2023-04-30T22:51:28.956Z,78.67
2023-04-30T22:54:31.626Z,79.09
2023-04-30T22:57:33.526Z,79.33
2023-04-30T23:00:35.985Z,79.58
2023-04-30T23:03:38.793Z,79.71
2023-04-30T23:06:42.938Z,79.75
2023-04-30T23:09:45.347Z,79.79
2023-04-30T23:12:48.081Z,79.78
2023-04-30T23:15:50.123Z,80.01
2023-04-30T23:18:52.359Z,80.22
2023-04-30T23:21:55.118Z,80.36
2023-04-30T23:24:57.366Z,80.28
2023-04-30T23:28:00.276Z,80.41
2023-04-30T23:31:02.463Z,81.14
2023-04-30T23:34:04.682Z,81.27
2023-04-30T23:37:06.759Z,81.51
2023-04-30T23:40:09.850Z,81.78
2023-04-30T23:43:12.031Z,82.43
2023-04-30T23:46:16.061Z,82.57
2023-04-30T23:49:18.440Z,82.83
2023-04-30T23:52:20.626Z,82.58
2023-04-30T23:55:22.566Z,82.01
2023-04-30T23:58:25.325Z,82.25
